createdAt,value
2018-04-13T00:01:25.752Z,84.92
2018-04-13T00:02:25.750Z,84.83
2018-04-13T00:04:18.682Z,85.31
2018-04-13T00:05:18.703Z,84.83
2018-04-13T00:07:11.653Z,85.21
2018-04-13T00:08:11.658Z,84.83
2018-04-13T00:10:04.607Z,84.74
2018-04-13T00:11:04.612Z,85.02
2018-04-13T00:12:57.543Z,84.64
2018-04-13T00:13:57.565Z,84.64
2018-04-13T00:15:50.515Z,84.74
2018-04-13T00:16:50.518Z,84.92
2018-04-13T00:18:43.962Z,84.92
2018-04-13T00:19:43.989Z,84.92
2018-04-13T00:21:36.936Z,84.64
2018-04-13T00:22:36.944Z,84.83
2018-04-13T00:24:30.381Z,85.12
2018-04-13T00:25:30.405Z,85.41
2018-04-13T00:27:23.354Z,85.60
2018-04-13T00:28:23.359Z,85.55
2018-04-13T00:30:16.307Z,85.46
2018-04-13T00:31:16.312Z,85.46
2018-04-13T00:33:09.243Z,85.84
2018-04-13T00:34:09.265Z,85.75
2018-04-13T00:36:02.214Z,85.84
2018-04-13T00:37:02.219Z,85.84
2018-04-13T00:38:55.159Z,85.75
2018-04-13T00:39:55.179Z,85.75
2018-04-13T00:41:48.124Z,85.75
2018-04-13T00:42:48.127Z,85.75
2018-04-13T00:44:41.058Z,86.41
2018-04-13T00:45:41.083Z,85.94
2018-04-13T00:47:34.039Z,86.32
2018-04-13T00:48:34.038Z,86.32
2018-04-13T00:50:26.983Z,85.94
2018-04-13T00:51:26.990Z,85.84
2018-04-13T00:53:19.922Z,85.94
2018-04-13T00:54:19.943Z,86.32
2018-04-13T00:56:12.894Z,86.41
2018-04-13T00:57:12.900Z,86.41
2018-04-13T00:59:05.839Z,86.13
2018-04-13T01:00:05.859Z,86.61
2018-04-13T01:01:58.798Z,86.04
2018-04-13T01:02:58.804Z,86.04
2018-04-13T01:04:51.735Z,85.55
2018-04-13T01:05:51.759Z,85.31
2018-04-13T01:07:44.707Z,85.46
2018-04-13T01:08:44.728Z,85.36
2018-04-13T01:10:37.668Z,85.94
2018-04-13T01:11:37.667Z,86.13
2018-04-13T01:13:30.596Z,85.84
2018-04-13T01:14:30.620Z,86.22
2018-04-13T01:16:23.571Z,86.51
2018-04-13T01:17:23.572Z,86.70
2018-04-13T01:19:16.503Z,86.51
2018-04-13T01:20:16.526Z,86.41
2018-04-13T01:22:09.997Z,86.61
2018-04-13T01:23:09.994Z,86.61
2018-04-13T01:25:02.926Z,86.61
2018-04-13T01:26:02.945Z,86.61
2018-04-13T01:27:55.895Z,86.13
2018-04-13T01:28:55.900Z,85.75
2018-04-13T01:30:48.850Z,85.94
2018-04-13T01:31:48.861Z,86.32
2018-04-13T01:33:41.785Z,86.04
2018-04-13T01:34:41.814Z,85.84
2018-04-13T01:36:34.766Z,85.65
2018-04-13T01:37:34.764Z,85.75
2018-04-13T01:39:27.695Z,86.51
2018-04-13T01:40:27.718Z,86.22
2018-04-13T01:42:20.667Z,86.70
2018-04-13T01:43:20.673Z,86.32
2018-04-13T01:45:14.113Z,86.41
2018-04-13T01:46:14.137Z,86.90
2018-04-13T01:48:07.086Z,86.61
2018-04-13T01:49:07.090Z,86.04
2018-04-13T01:51:00.042Z,85.75
2018-04-13T01:52:00.045Z,86.13
2018-04-13T01:53:52.974Z,85.75
2018-04-13T01:54:52.998Z,85.75
2018-04-13T01:56:45.947Z,85.94
2018-04-13T01:57:45.953Z,86.22
2018-04-13T01:59:38.883Z,85.71
2018-04-13T02:00:38.907Z,85.99
2018-04-13T02:02:31.854Z,86.37
2018-04-13T02:03:31.860Z,86.47
2018-04-13T02:05:24.791Z,86.94
2018-04-13T02:06:24.816Z,87.71
2018-04-13T02:08:17.765Z,88.15
2018-04-13T02:09:17.770Z,88.62
2018-04-13T02:11:10.717Z,88.15
2018-04-13T02:12:10.724Z,88.53
2018-04-13T02:14:03.652Z,87.23
2018-04-13T02:15:03.677Z,87.71
2018-04-13T02:16:56.629Z,87.57
2018-04-13T02:17:56.630Z,87.48
2018-04-13T02:19:49.560Z,88.05
2018-04-13T02:20:49.584Z,88.72
2018-04-13T02:22:43.046Z,88.72
2018-04-13T02:23:43.048Z,88.81
2018-04-13T02:25:35.978Z,88.81
2018-04-13T02:26:36.000Z,88.62
2018-04-13T02:28:28.953Z,88.34
2018-04-13T02:29:28.956Z,88.62
2018-04-13T02:31:21.905Z,88.81
2018-04-13T02:32:21.912Z,88.62
2018-04-13T02:34:14.929Z,88.81
2018-04-13T02:35:14.866Z,88.72
2018-04-13T02:37:07.813Z,88.72
2018-04-13T02:38:07.815Z,88.62
2018-04-13T02:40:00.746Z,88.62
2018-04-13T02:41:00.770Z,88.72
2018-04-13T02:42:53.721Z,88.72
2018-04-13T02:43:53.727Z,88.91
2018-04-13T02:45:46.655Z,88.72
2018-04-13T02:46:46.678Z,88.62
2018-04-13T02:48:40.143Z,88.72
2018-04-13T02:49:40.142Z,88.53
2018-04-13T02:51:33.095Z,88.15
2018-04-13T02:52:33.102Z,88.05
2018-04-13T02:54:26.028Z,87.95
2018-04-13T02:55:26.051Z,88.29
2018-04-13T02:57:19.000Z,87.82
2018-04-13T02:58:19.005Z,88.29
2018-04-13T03:00:11.936Z,88.10
2018-04-13T03:01:11.962Z,88.48
2018-04-13T03:03:04.913Z,88.20
2018-04-13T03:04:04.913Z,88.20
2018-04-13T03:05:57.846Z,88.68
2018-04-13T03:06:57.870Z,88.77
2018-04-13T03:08:50.854Z,88.96
2018-04-13T03:09:50.821Z,89.34
2018-04-13T03:11:43.774Z,89.15
2018-04-13T03:12:43.774Z,89.34
2018-04-13T03:14:36.707Z,89.15
2018-04-13T03:15:36.729Z,89.06
2018-04-13T03:17:29.686Z,89.25
2018-04-13T03:18:29.682Z,89.53
2018-04-13T03:20:22.614Z,89.15
2018-04-13T03:21:22.636Z,89.44
2018-04-13T03:23:16.100Z,89.15
2018-04-13T03:24:16.103Z,88.96
2018-04-13T03:26:09.032Z,89.44
2018-04-13T03:27:09.056Z,89.15
2018-04-13T03:29:02.007Z,88.96
2018-04-13T03:30:02.010Z,89.34
2018-04-13T03:31:54.959Z,88.58
2018-04-13T03:32:54.964Z,88.96
2018-04-13T03:34:47.895Z,88.68
2018-04-13T03:35:47.918Z,88.54
2018-04-13T03:37:40.866Z,88.58
2018-04-13T03:38:40.871Z,88.73
2018-04-13T03:40:33.800Z,88.77
2018-04-13T03:41:33.824Z,88.44
2018-04-13T03:43:26.774Z,88.77
2018-04-13T03:44:26.777Z,88.77
2018-04-13T03:46:19.710Z,88.10
2018-04-13T03:47:19.733Z,88.39
2018-04-13T03:49:12.685Z,87.48
2018-04-13T03:50:12.686Z,87.39
2018-04-13T03:52:05.636Z,87.58
2018-04-13T03:53:05.639Z,87.48
2018-04-13T03:54:58.572Z,87.48
2018-04-13T03:55:58.594Z,87.10
2018-04-13T03:57:51.543Z,87.77
2018-04-13T03:58:51.548Z,87.96
2018-04-13T04:00:44.482Z,88.44
2018-04-13T04:01:44.502Z,88.15
2018-04-13T04:03:37.455Z,87.68
2018-04-13T04:04:37.454Z,88.06
2018-04-13T04:06:30.388Z,87.96
2018-04-13T04:07:30.409Z,88.06
2018-04-13T04:09:23.364Z,88.59
2018-04-13T04:10:23.363Z,88.59
2018-04-13T04:12:16.315Z,89.16
2018-04-13T04:13:16.314Z,88.97
2018-04-13T04:15:09.760Z,89.83
2018-04-13T04:16:09.780Z,89.83
2018-04-13T04:18:02.734Z,90.31
2018-04-13T04:19:02.738Z,89.54
2018-04-13T04:20:55.671Z,89.92
2018-04-13T04:21:55.692Z,89.92
2018-04-13T04:23:48.643Z,89.54
2018-04-13T04:24:48.647Z,89.45
2018-04-13T04:26:41.580Z,89.16
2018-04-13T04:27:41.601Z,89.25
2018-04-13T04:29:35.062Z,89.16
2018-04-13T04:30:35.065Z,89.06
2018-04-13T04:32:28.015Z,89.16
2018-04-13T04:33:28.021Z,89.35
2018-04-13T04:35:20.954Z,89.73
2018-04-13T04:36:20.973Z,89.64
2018-04-13T04:38:14.440Z,89.54
2018-04-13T04:39:14.440Z,89.64
2018-04-13T04:41:07.884Z,89.83
2018-04-13T04:42:07.905Z,89.54
2018-04-13T04:44:02.399Z,90.21
2018-04-13T04:45:02.394Z,89.92
2018-04-13T04:46:55.850Z,89.35
2018-04-13T04:47:55.885Z,89.35
2018-04-13T04:49:49.321Z,89.35
2018-04-13T04:50:49.325Z,89.25
2018-04-13T04:52:42.791Z,89.25
2018-04-13T04:53:42.793Z,89.06
2018-04-13T04:55:35.741Z,89.54
2018-04-13T04:56:35.749Z,89.25
2018-04-13T04:58:30.238Z,89.45
2018-04-13T04:59:30.240Z,89.45
2018-04-13T05:01:23.178Z,89.92
2018-04-13T05:02:23.193Z,89.92
2018-04-13T05:04:16.156Z,89.64
2018-04-13T05:05:16.145Z,89.73
2018-04-13T05:07:09.590Z,89.73
2018-04-13T05:08:09.613Z,89.92
2018-04-13T05:10:03.111Z,90.31
2018-04-13T05:11:03.077Z,89.73
2018-04-13T05:12:56.032Z,89.73
2018-04-13T05:13:56.122Z,89.92
2018-04-13T05:15:48.979Z,89.54
2018-04-13T05:16:48.985Z,89.92
2018-04-13T05:18:41.951Z,89.25
2018-04-13T05:19:41.941Z,89.25
2018-04-13T05:21:34.877Z,88.68
2018-04-13T05:22:34.937Z,88.30
2018-04-13T05:24:27.843Z,88.59
2018-04-13T05:25:27.847Z,88.30
2018-04-13T05:27:21.292Z,88.49
2018-04-13T05:28:21.315Z,87.92
2018-04-13T05:30:14.266Z,88.01
2018-04-13T05:31:14.268Z,88.87
2018-04-13T05:33:07.219Z,88.87
2018-04-13T05:34:07.222Z,88.68
2018-04-13T05:36:00.160Z,88.68
2018-04-13T05:37:00.177Z,88.68
2018-04-13T05:38:53.126Z,88.40
2018-04-13T05:39:53.131Z,88.78
2018-04-13T05:41:46.067Z,89.16
2018-04-13T05:42:46.085Z,89.73
2018-04-13T05:44:39.037Z,89.54
2018-04-13T05:45:39.038Z,90.35
2018-04-13T05:47:31.977Z,90.35
2018-04-13T05:48:31.993Z,90.35
2018-04-13T05:50:24.946Z,89.97
2018-04-13T05:51:24.954Z,90.45
2018-04-13T05:53:17.896Z,90.16
2018-04-13T05:54:17.899Z,90.54
2018-04-13T05:56:10.836Z,90.83
2018-04-13T05:57:10.854Z,90.45
2018-04-13T05:59:03.803Z,90.83
2018-04-13T06:00:03.807Z,91.06
2018-04-13T06:02:06.715Z,90.30
2018-04-13T06:03:06.735Z,89.63
2018-04-13T06:04:59.660Z,89.82
2018-04-13T06:05:59.678Z,89.53
2018-04-13T06:07:52.566Z,89.25
2018-04-13T06:08:52.587Z,88.58
2018-04-13T06:10:45.510Z,88.10
2018-04-13T06:11:45.514Z,88.24
2018-04-13T06:13:38.445Z,88.05
2018-04-13T06:14:38.442Z,88.05
2018-04-13T06:16:31.345Z,88.05
2018-04-13T06:17:31.368Z,87.95
2018-04-13T06:19:24.288Z,88.15
2018-04-13T06:20:24.291Z,88.24
2018-04-13T06:22:17.196Z,88.29
2018-04-13T06:23:17.218Z,88.77
2018-04-13T06:25:10.140Z,88.77
2018-04-13T06:26:10.144Z,88.81
2018-04-13T06:28:03.049Z,89.15
2018-04-13T06:29:03.069Z,88.77
2018-04-13T06:30:55.991Z,89.73
2018-04-13T06:31:55.995Z,89.73
2018-04-13T06:33:48.917Z,89.73
2018-04-13T06:34:48.919Z,89.67
2018-04-13T06:36:41.823Z,89.82
2018-04-13T06:37:41.850Z,89.77
2018-04-13T06:39:34.766Z,90.73
2018-04-13T06:40:34.772Z,90.06
2018-04-13T06:42:27.674Z,89.48
2018-04-13T06:43:27.696Z,89.96
2018-04-13T06:45:20.810Z,89.48
2018-04-13T06:46:20.813Z,90.01
2018-04-13T06:48:13.722Z,89.53
2018-04-13T06:49:13.744Z,88.00
2018-04-13T06:51:06.671Z,89.00
2018-04-13T06:52:06.676Z,87.66
2018-04-13T06:53:59.603Z,87.27
2018-04-13T06:54:59.609Z,86.13
2018-04-13T06:56:52.517Z,85.36
2018-04-13T06:57:52.541Z,85.79
2018-04-13T06:59:45.461Z,86.55
2018-04-13T07:00:45.464Z,86.69
2018-04-13T07:02:38.375Z,83.92
2018-04-13T07:03:38.401Z,83.53
2018-04-13T07:05:31.340Z,83.92
2018-04-13T07:06:31.335Z,83.92
2018-04-13T07:08:24.252Z,82.48
2018-04-13T07:09:24.268Z,82.04
2018-04-13T07:11:17.199Z,81.75
2018-04-13T07:12:17.205Z,80.89
2018-04-13T07:14:10.134Z,81.18
2018-04-13T07:15:10.147Z,80.89
2018-04-13T07:17:03.053Z,79.83
2018-04-13T07:18:03.077Z,80.03
2018-04-13T07:19:56.007Z,80.03
2018-04-13T07:20:56.014Z,80.07
2018-04-13T07:22:48.921Z,80.41
2018-04-13T07:23:48.945Z,79.93
2018-04-13T07:25:41.874Z,79.49
2018-04-13T07:26:41.898Z,79.16
2018-04-13T07:28:34.799Z,79.16
2018-04-13T07:29:34.824Z,79.64
2018-04-13T07:31:27.757Z,80.12
2018-04-13T07:32:27.763Z,80.32
2018-04-13T07:34:20.689Z,80.60
2018-04-13T07:35:20.695Z,80.51
2018-04-13T07:37:13.601Z,80.60
2018-04-13T07:38:13.627Z,80.41
2018-04-13T07:40:06.558Z,80.41
2018-04-13T07:41:06.560Z,80.60
2018-04-13T07:42:59.471Z,80.12
2018-04-13T07:43:59.496Z,79.64
2018-04-13T07:45:52.427Z,80.12
2018-04-13T07:46:52.430Z,80.22
2018-04-13T07:48:45.342Z,80.12
2018-04-13T07:49:45.364Z,79.93
2018-04-13T07:51:38.429Z,80.99
2018-04-13T07:52:38.297Z,80.70
2018-04-13T07:54:31.221Z,80.70
2018-04-13T07:55:31.226Z,80.79
2018-04-13T07:57:24.141Z,80.89
2018-04-13T07:58:24.163Z,80.79
2018-04-13T08:00:17.557Z,80.41
2018-04-13T08:01:17.096Z,80.16
2018-04-13T08:03:10.010Z,80.32
2018-04-13T08:04:10.032Z,80.32
2018-04-13T08:06:02.958Z,80.41
2018-04-13T08:07:02.963Z,80.70
2018-04-13T08:08:55.870Z,82.04
2018-04-13T08:09:55.894Z,82.29
2018-04-13T08:11:48.821Z,83.15
2018-04-13T08:12:48.826Z,82.86
2018-04-13T08:14:41.767Z,83.25
2018-04-13T08:15:41.761Z,84.20
2018-04-13T08:17:34.669Z,84.68
2018-04-13T08:18:34.691Z,84.58
2018-04-13T08:20:27.616Z,84.20
2018-04-13T08:21:27.622Z,83.92
2018-04-13T08:23:20.582Z,84.01
2018-04-13T08:24:20.558Z,84.01
2018-04-13T08:26:13.488Z,83.44
2018-04-13T08:27:13.491Z,83.44
2018-04-13T08:29:06.404Z,84.11
2018-04-13T08:30:06.450Z,84.25
2018-04-13T08:31:59.350Z,83.58
2018-04-13T08:32:59.356Z,82.90
2018-04-13T08:34:52.291Z,82.27
2018-04-13T08:35:52.297Z,82.27
2018-04-13T08:37:45.206Z,81.12
2018-04-13T08:38:45.228Z,81.31
2018-04-13T08:40:38.156Z,81.02
2018-04-13T08:41:38.185Z,80.74
2018-04-13T08:43:31.099Z,81.02
2018-04-13T08:44:31.096Z,81.02
2018-04-13T08:46:24.028Z,80.74
2018-04-13T08:47:24.036Z,79.97
2018-04-13T08:49:17.245Z,80.16
2018-04-13T08:50:16.995Z,80.16
2018-04-13T08:52:09.895Z,80.83
2018-04-13T08:53:09.919Z,80.40
2018-04-13T08:55:02.828Z,80.58
2018-04-13T08:56:02.837Z,80.11
2018-04-13T08:57:55.750Z,79.82
2018-04-13T08:58:55.779Z,80.07
2018-04-13T09:00:48.703Z,79.97
2018-04-13T09:01:48.712Z,80.93
2018-04-13T09:03:41.759Z,80.16
2018-04-13T09:04:41.785Z,80.55
2018-04-13T09:06:34.739Z,80.16
2018-04-13T09:07:34.738Z,79.97
2018-04-13T09:09:27.628Z,80.26
2018-04-13T09:10:27.653Z,80.07
2018-04-13T09:12:20.582Z,79.97
2018-04-13T09:13:20.586Z,80.35
2018-04-13T09:15:13.519Z,79.97
2018-04-13T09:16:13.531Z,80.26
2018-04-13T09:18:06.436Z,79.97
2018-04-13T09:19:06.484Z,79.97
2018-04-13T09:20:59.393Z,80.26
2018-04-13T09:21:59.399Z,80.35
2018-04-13T09:23:52.305Z,80.74
2018-04-13T09:24:52.329Z,80.45
2018-04-13T09:26:45.261Z,80.68
2018-04-13T09:27:45.265Z,80.01
2018-04-13T09:29:38.174Z,79.44
2018-04-13T09:30:38.200Z,79.53
2018-04-13T09:32:31.128Z,78.57
2018-04-13T09:33:31.136Z,78.99
2018-04-13T09:35:24.070Z,78.99
2018-04-13T09:36:24.079Z,77.65
2018-04-13T09:38:16.988Z,77.21
2018-04-13T09:39:17.016Z,77.59
2018-04-13T09:41:09.947Z,76.82
2018-04-13T09:42:09.958Z,76.50
2018-04-13T09:44:02.868Z,76.82
2018-04-13T09:45:02.892Z,76.25
2018-04-13T09:46:55.844Z,76.34
2018-04-13T09:47:55.838Z,76.15
2018-04-13T09:49:48.745Z,76.54
2018-04-13T09:50:48.773Z,76.64
2018-04-13T09:52:41.702Z,76.34
2018-04-13T09:53:41.707Z,75.96
2018-04-13T09:55:34.644Z,75.29
2018-04-13T09:56:34.671Z,75.00
2018-04-13T09:58:27.565Z,75.29
2018-04-13T09:59:27.596Z,75.67
2018-04-13T10:01:20.523Z,75.71
2018-04-13T10:02:20.530Z,75.32
2018-04-13T10:04:13.444Z,74.17
2018-04-13T10:05:13.469Z,74.37
2018-04-13T10:07:06.399Z,73.21
2018-04-13T10:08:06.452Z,74.17
2018-04-13T10:09:59.321Z,74.02
2018-04-13T10:10:59.347Z,73.63
2018-04-13T10:12:52.278Z,72.77
2018-04-13T10:13:52.292Z,72.96
2018-04-13T10:15:45.243Z,72.29
2018-04-13T10:16:45.234Z,73.44
2018-04-13T10:18:38.145Z,72.96
2018-04-13T10:19:38.175Z,72.38
2018-04-13T10:21:31.108Z,72.09
2018-04-13T10:22:31.119Z,72.13
2018-04-13T10:24:24.034Z,71.75
2018-04-13T10:25:24.064Z,70.72
2018-04-13T10:27:16.996Z,70.50
2018-04-13T10:28:17.008Z,70.43
2018-04-13T10:30:09.918Z,70.15
2018-04-13T10:31:09.945Z,70.01
2018-04-13T10:33:02.874Z,70.72
2018-04-13T10:34:02.883Z,70.05
2018-04-13T10:35:55.822Z,70.43
2018-04-13T10:36:55.831Z,70.72
2018-04-13T10:38:48.742Z,70.43
2018-04-13T10:39:48.766Z,70.15
2018-04-13T10:41:41.704Z,69.95
2018-04-13T10:42:41.713Z,70.15
2018-04-13T10:44:35.762Z,70.15
2018-04-13T10:45:35.785Z,70.34
2018-04-13T10:47:28.717Z,70.05
2018-04-13T10:48:28.730Z,70.15
2018-04-13T10:50:21.642Z,71.11
2018-04-13T10:51:21.672Z,71.11
2018-04-13T10:53:14.606Z,69.76
2018-04-13T10:54:14.617Z,69.85
2018-04-13T10:56:07.702Z,69.57
2018-04-13T10:57:07.713Z,70.50
2018-04-13T10:59:00.633Z,70.88
2018-04-13T11:00:00.662Z,70.98
2018-04-13T11:01:53.595Z,70.98
2018-04-13T11:02:53.602Z,71.26
2018-04-13T11:04:46.755Z,71.46
2018-04-13T11:05:46.774Z,71.26
2018-04-13T11:07:39.927Z,70.98
2018-04-13T11:08:39.934Z,70.88
2018-04-13T11:10:33.074Z,71.08
2018-04-13T11:11:33.101Z,70.21
2018-04-13T11:13:26.232Z,71.33
2018-04-13T11:14:26.240Z,71.33
2018-04-13T11:16:19.419Z,72.29
2018-04-13T11:17:19.411Z,72.67
2018-04-13T11:19:12.547Z,73.31
2018-04-13T11:20:12.579Z,73.25
2018-04-13T11:22:05.514Z,73.15
2018-04-13T11:23:05.520Z,74.02
2018-04-13T11:24:58.432Z,73.35
2018-04-13T11:25:58.462Z,73.98
2018-04-13T11:27:51.625Z,73.88
2018-04-13T11:28:51.632Z,74.65
2018-04-13T11:30:44.764Z,74.75
2018-04-13T11:31:44.794Z,74.46
2018-04-13T11:33:37.946Z,74.85
2018-04-13T11:34:37.949Z,74.85
2018-04-13T11:36:31.101Z,74.17
2018-04-13T11:37:31.110Z,74.17
2018-04-13T11:39:24.262Z,74.37
2018-04-13T11:40:24.317Z,74.43
2018-04-13T11:42:17.197Z,74.33
2018-04-13T11:43:17.207Z,74.81
2018-04-13T11:45:10.116Z,74.52
2018-04-13T11:46:10.141Z,74.23
2018-04-13T11:48:03.078Z,74.33
2018-04-13T11:49:03.081Z,74.52
2018-04-13T11:50:55.992Z,74.43
2018-04-13T11:51:56.018Z,75.10
2018-04-13T11:53:49.134Z,74.90
2018-04-13T11:54:49.140Z,75.10
2018-04-13T11:56:42.291Z,75.10
2018-04-13T11:57:42.306Z,74.81
2018-04-13T11:59:35.428Z,74.90
2018-04-13T12:00:35.448Z,74.81
2018-04-13T12:02:28.420Z,75.48
2018-04-13T12:03:28.386Z,75.10
2018-04-13T12:05:21.298Z,74.90
2018-04-13T12:06:21.320Z,74.62
2018-04-13T12:08:14.437Z,74.52
2018-04-13T12:09:14.439Z,75.13
2018-04-13T12:11:07.574Z,74.94
2018-04-13T12:12:07.596Z,74.65
2018-04-13T12:14:00.530Z,74.85
2018-04-13T12:15:00.562Z,74.46
2018-04-13T12:16:53.476Z,74.62
2018-04-13T12:17:53.476Z,73.50
2018-04-13T12:19:46.626Z,73.56
2018-04-13T12:20:46.727Z,71.87
2018-04-13T12:22:39.853Z,71.45
2018-04-13T12:23:39.866Z,70.10
2018-04-13T12:25:32.935Z,71.16
2018-04-13T12:26:32.959Z,69.59
2018-04-13T12:28:26.386Z,71.61
2018-04-13T12:29:26.392Z,71.12
2018-04-13T12:31:19.477Z,69.78
2018-04-13T12:32:19.489Z,69.20
2018-04-13T12:34:12.416Z,70.55
2018-04-13T12:35:12.423Z,71.51
2018-04-13T12:37:05.355Z,71.61
2018-04-13T12:38:05.374Z,69.87
2018-04-13T12:39:58.420Z,69.49
2018-04-13T12:40:58.444Z,69.84
2018-04-13T12:42:51.375Z,71.57
2018-04-13T12:43:51.382Z,72.53
2018-04-13T12:45:44.294Z,73.10
2018-04-13T12:46:44.315Z,70.99
2018-04-13T12:48:37.258Z,72.91
2018-04-13T12:49:37.253Z,67.06
2018-04-13T12:51:30.165Z,69.07
2018-04-13T12:52:30.189Z,71.66
2018-04-13T12:54:23.366Z,72.91
2018-04-13T12:55:23.365Z,73.20
2018-04-13T12:57:16.249Z,71.66
2018-04-13T12:58:16.254Z,71.86
2018-04-13T13:00:09.195Z,71.63
2018-04-13T13:01:09.192Z,68.08
2018-04-13T13:03:02.231Z,73.07
2018-04-13T13:04:02.126Z,73.16
2018-04-13T13:05:55.042Z,73.55
2018-04-13T13:06:55.115Z,73.83
2018-04-13T13:08:48.306Z,74.69
2018-04-13T13:09:48.253Z,74.22
2018-04-13T13:11:41.117Z,74.22
2018-04-13T13:12:41.124Z,72.63
2018-04-13T13:14:35.150Z,73.16
2018-04-13T13:15:34.140Z,73.20
2018-04-13T13:17:26.990Z,74.06
2018-04-13T13:18:27.011Z,72.24
2018-04-13T13:20:19.904Z,72.24
2018-04-13T13:21:19.928Z,73.30
2018-04-13T13:23:12.856Z,71.19
2018-04-13T13:24:12.864Z,72.05
2018-04-13T13:26:05.775Z,70.90
2018-04-13T13:27:05.799Z,70.13
2018-04-13T13:28:58.731Z,69.93
2018-04-13T13:29:58.743Z,70.42
2018-04-13T13:31:51.647Z,70.90
2018-04-13T13:32:51.673Z,70.42
2018-04-13T13:34:44.600Z,69.74
2018-04-13T13:35:44.605Z,69.74
2018-04-13T13:37:37.536Z,69.36
2018-04-13T13:38:37.543Z,69.56
2018-04-13T13:40:30.462Z,68.98
2018-04-13T13:41:30.486Z,68.98
2018-04-13T13:43:23.423Z,70.51
2018-04-13T13:44:23.421Z,68.98
2018-04-13T13:46:16.329Z,68.40
2018-04-13T13:47:16.355Z,68.21
2018-04-13T13:49:09.777Z,67.06
2018-04-13T13:50:09.784Z,67.73
2018-04-13T13:52:02.707Z,67.47
2018-04-13T13:53:02.724Z,67.57
2018-04-13T13:54:55.659Z,67.19
2018-04-13T13:55:55.665Z,67.67
2018-04-13T13:57:48.595Z,67.86
2018-04-13T13:58:48.598Z,68.91
2018-04-13T14:00:41.511Z,68.15
2018-04-13T14:01:41.541Z,68.34
2018-04-13T14:03:34.465Z,68.53
2018-04-13T14:04:34.479Z,68.73
2018-04-13T14:06:27.403Z,69.01
2018-04-13T14:07:27.406Z,71.51
2018-04-13T14:09:20.335Z,70.17
2018-04-13T14:10:20.346Z,71.22
2018-04-13T14:12:13.255Z,72.47
2018-04-13T14:13:13.284Z,71.61
2018-04-13T14:15:06.209Z,71.98
2018-04-13T14:16:06.217Z,72.47
2018-04-13T14:17:59.143Z,72.72
2018-04-13T14:18:59.149Z,73.20
2018-04-13T14:20:52.062Z,73.83
2018-04-13T14:21:52.086Z,73.93
2018-04-13T14:23:45.011Z,74.95
2018-04-13T14:24:45.016Z,75.90
2018-04-13T14:26:37.925Z,76.39
2018-04-13T14:27:37.948Z,76.19
2018-04-13T14:29:30.876Z,76.39
2018-04-13T14:30:30.891Z,76.86
2018-04-13T14:32:23.803Z,76.96
2018-04-13T14:33:23.813Z,76.96
2018-04-13T14:35:16.743Z,76.96
2018-04-13T14:36:16.749Z,76.57
2018-04-13T14:38:09.676Z,76.77
2018-04-13T14:39:09.697Z,77.31
2018-04-13T14:41:02.597Z,77.40
2018-04-13T14:42:02.620Z,77.21
2018-04-13T14:43:55.551Z,76.82
2018-04-13T14:44:55.550Z,76.29
2018-04-13T14:46:48.462Z,76.00
2018-04-13T14:47:48.484Z,76.06
2018-04-13T14:49:41.410Z,75.20
2018-04-13T14:50:41.414Z,75.10
2018-04-13T14:52:34.321Z,76.06
2018-04-13T14:53:34.346Z,75.77
2018-04-13T14:55:27.276Z,76.15
2018-04-13T14:56:27.275Z,76.54
2018-04-13T14:58:20.204Z,75.39
2018-04-13T14:59:20.207Z,75.68
2018-04-13T15:01:13.118Z,75.48
2018-04-13T15:02:13.140Z,75.20
2018-04-13T15:04:06.070Z,76.15
2018-04-13T15:05:06.071Z,76.44
2018-04-13T15:06:58.982Z,76.64
2018-04-13T15:07:59.005Z,76.15
2018-04-13T15:09:51.933Z,76.15
2018-04-13T15:10:51.937Z,76.06
2018-04-13T15:12:44.847Z,75.58
2018-04-13T15:13:44.930Z,75.52
2018-04-13T15:15:37.798Z,75.71
2018-04-13T15:16:37.803Z,75.71
2018-04-13T15:18:30.759Z,74.37
2018-04-13T15:19:30.735Z,73.61
2018-04-13T15:21:23.696Z,73.22
2018-04-13T15:22:23.722Z,73.80
2018-04-13T15:24:16.598Z,74.27
2018-04-13T15:25:16.612Z,74.08
2018-04-13T15:27:09.515Z,73.41
2018-04-13T15:28:09.540Z,73.13
2018-04-13T15:30:02.465Z,72.84
2018-04-13T15:31:02.470Z,72.74
2018-04-13T15:32:55.379Z,72.55
2018-04-13T15:33:55.403Z,72.45
2018-04-13T15:35:48.534Z,72.07
2018-04-13T15:36:48.540Z,71.98
2018-04-13T15:38:41.489Z,73.41
2018-04-13T15:39:41.470Z,73.80
2018-04-13T15:41:34.375Z,74.95
2018-04-13T15:42:34.401Z,74.85
2018-04-13T15:44:27.375Z,75.04
2018-04-13T15:45:27.357Z,75.33
2018-04-13T15:47:20.282Z,73.32
2018-04-13T15:48:20.359Z,74.08
2018-04-13T15:50:13.291Z,73.99
2018-04-13T15:51:13.279Z,74.66
2018-04-13T15:53:06.286Z,74.76
2018-04-13T15:54:06.255Z,74.27
2018-04-13T15:55:59.137Z,75.04
2018-04-13T15:56:59.143Z,74.76
2018-04-13T15:58:52.079Z,75.52
2018-04-13T15:59:52.076Z,75.33
2018-04-13T16:01:44.995Z,75.14
2018-04-13T16:02:45.023Z,74.66
2018-04-13T16:04:37.952Z,74.47
2018-04-13T16:05:37.955Z,74.47
2018-04-13T16:07:30.868Z,74.85
2018-04-13T16:08:30.929Z,76.00
2018-04-13T16:10:23.883Z,76.00
2018-04-13T16:11:23.820Z,75.90
2018-04-13T16:13:16.727Z,76.67
2018-04-13T16:14:16.749Z,75.71
2018-04-13T16:16:09.681Z,76.19
2018-04-13T16:17:09.684Z,76.00
2018-04-13T16:19:02.630Z,75.33
2018-04-13T16:20:02.636Z,75.43
2018-04-13T16:21:55.546Z,75.75
2018-04-13T16:22:55.573Z,75.56
2018-04-13T16:24:48.532Z,75.85
2018-04-13T16:25:48.508Z,75.46
2018-04-13T16:27:41.427Z,75.65
2018-04-13T16:28:41.440Z,75.46
2018-04-13T16:30:34.431Z,75.85
2018-04-13T16:31:34.398Z,75.56
2018-04-13T16:33:27.309Z,75.27
2018-04-13T16:34:27.334Z,75.27
2018-04-13T16:36:20.330Z,75.65
2018-04-13T16:37:20.293Z,75.65
2018-04-13T16:39:13.298Z,75.27
2018-04-13T16:40:13.204Z,75.37
2018-04-13T16:42:06.109Z,74.98
2018-04-13T16:43:06.171Z,75.56
2018-04-13T16:44:59.061Z,74.98
2018-04-13T16:45:59.070Z,74.60
2018-04-13T16:47:51.990Z,75.18
2018-04-13T16:48:52.012Z,74.98
2018-04-13T16:50:44.941Z,75.08
2018-04-13T16:51:44.948Z,74.60
2018-04-13T16:53:37.857Z,75.27
2018-04-13T16:54:37.889Z,74.89
2018-04-13T16:56:30.878Z,75.08
2018-04-13T16:57:30.826Z,75.37
2018-04-13T16:59:23.741Z,74.31
2018-04-13T17:00:23.748Z,73.32
2018-04-13T17:02:16.723Z,73.32
2018-04-13T17:03:16.699Z,71.98
2018-04-13T17:05:09.608Z,72.36
2018-04-13T17:06:09.615Z,72.07
2018-04-13T17:08:02.590Z,71.69
2018-04-13T17:09:02.547Z,72.07
2018-04-13T17:10:55.473Z,73.32
2018-04-13T17:11:55.496Z,73.61
2018-04-13T17:13:48.387Z,73.70
2018-04-13T17:14:48.411Z,73.41
2018-04-13T17:16:41.340Z,73.61
2018-04-13T17:17:41.379Z,73.22
2018-04-13T17:19:34.280Z,73.26
2018-04-13T17:20:34.280Z,72.49
2018-04-13T17:22:27.254Z,72.84
2018-04-13T17:23:27.212Z,73.03
2018-04-13T17:25:20.138Z,73.26
2018-04-13T17:26:20.147Z,72.94
2018-04-13T17:28:13.123Z,73.80
2018-04-13T17:29:13.139Z,73.70
2018-04-13T17:31:06.172Z,74.27
2018-04-13T17:32:06.083Z,73.80
2018-04-13T17:33:59.095Z,73.61
2018-04-13T17:34:58.964Z,73.13
2018-04-13T17:36:51.891Z,74.15
2018-04-13T17:37:51.932Z,73.99
2018-04-13T17:39:44.891Z,74.62
2018-04-13T17:40:44.831Z,74.43
2018-04-13T17:42:37.739Z,75.77
2018-04-13T17:43:37.766Z,75.68
2018-04-13T17:45:30.792Z,75.77
2018-04-13T17:46:30.692Z,76.06
2018-04-13T17:48:23.618Z,76.06
2018-04-13T17:49:23.633Z,75.77
2018-04-13T17:51:16.626Z,76.15
2018-04-13T17:52:16.563Z,75.96
2018-04-13T17:54:09.540Z,75.77
2018-04-13T17:55:09.498Z,75.68
2018-04-13T17:57:02.442Z,75.68
2018-04-13T17:58:02.436Z,76.44
2018-04-13T17:59:55.360Z,76.15
2018-04-13T18:00:55.364Z,75.96
2018-04-13T18:02:48.267Z,75.87
2018-04-13T18:03:48.307Z,75.68
2018-04-13T18:05:41.288Z,76.02
2018-04-13T18:06:41.291Z,76.31
2018-04-13T18:08:34.200Z,76.21
2018-04-13T18:09:34.155Z,76.98
2018-04-13T18:11:27.149Z,77.08
2018-04-13T18:12:27.086Z,76.79
2018-04-13T18:14:19.995Z,76.79
2018-04-13T18:15:20.015Z,76.79
2018-04-13T18:17:13.007Z,76.69
2018-04-13T18:18:12.943Z,76.69
2018-04-13T18:20:05.877Z,77.08
2018-04-13T18:21:05.877Z,77.04
2018-04-13T18:22:58.854Z,77.26
2018-04-13T18:23:58.808Z,76.79
2018-04-13T18:25:51.734Z,77.08
2018-04-13T18:26:51.741Z,77.17
2018-04-13T18:28:44.658Z,77.94
2018-04-13T18:29:44.689Z,77.55
2018-04-13T18:31:37.603Z,77.17
2018-04-13T18:32:37.608Z,77.84
2018-04-13T18:34:30.588Z,77.36